PDT,Max TemperatureF,Mean TemperatureF,Min TemperatureF,Max Dew PointF,MeanDew PointF,Min DewpointF,Max Humidity, Mean Humidity, Min Humidity, Max Sea Level PressureIn, Mean Sea Level PressureIn, Min Sea Level PressureIn, Max VisibilityMiles, Mean VisibilityMiles, Min VisibilityMiles, Max Wind SpeedMPH, Mean Wind SpeedMPH, Max Gust SpeedMPH,PrecipitationIn, CloudCover, Events, WindDirDegrees
2013-10-1,96,80,63,56,44,33,67,32,14,29.87,29.80,29.74,10,10,9,10,3,,0.00,0,,157
2013-10-2,96,78,60,62,51,43,80,43,17,29.86,29.78,29.71,10,10,10,10,5,,0.00,0,,178
2013-10-3,95,80,66,61,45,28,73,36,11,29.78,29.72,29.64,10,10,10,20,6,25,0.00,0,,232
2013-10-4,87,74,60,53,29,13,65,25,6,30.07,29.95,29.78,10,10,10,15,6,22,0.00,0,,347
2013-10-5,84,72,59,34,24,17,39,18,8,30.19,30.11,30.06,10,10,10,17,8,22,0.00,0,,329
2013-10-6,90,72,55,37,27,22,37,21,8,30.10,30.02,29.94,10,10,10,10,6,,0.00,0,,273
2013-10-7,93,73,55,34,27,23,30,19,8,29.94,29.87,29.79,10,10,10,9,6,,0.00,0,,279
2013-10-8,91,76,61,46,31,19,44,21,8,29.82,29.73,29.64,10,10,10,23,8,32,0.00,0,,239
2013-10-9,75,68,57,49,44,41,72,44,31,29.77,29.70,29.65,10,9,4,31,22,39,0.00,2,Rain,270
2013-10-10,77,64,52,50,41,36,75,46,26,29.94,29.88,29.78,10,10,10,14,5,21,0.01,1,,278
2013-10-11,82,66,52,49,41,37,69,43,21,30.01,29.94,29.88,10,10,10,7,4,,0.00,0,,260
2013-10-12,87,70,55,48,39,35,55,35,17,29.92,29.86,29.80,10,10,10,7,4,,0.00,0,,256
2013-10-13,88,73,59,49,40,30,54,35,13,29.92,29.85,29.80,10,10,10,16,7,16,0.00,0,,238
2013-10-14,86,70,55,45,35,30,46,30,14,30.02,29.95,29.90,10,10,10,8,5,,0.00,0,,292
2013-10-15,87,70,54,38,32,25,46,27,11,29.97,29.92,29.86,10,10,10,10,6,17,0.00,0,,300
2013-10-16,84,68,53,40,31,25,50,28,12,30.09,30.01,29.96,10,10,10,12,5,,0.00,0,,285
2013-10-17,87,69,52,34,29,20,44,25,9,30.02,29.94,29.86,10,10,10,7,3,,0.00,0,,266
2013-10-18,90,72,55,38,30,23,42,25,9,29.98,29.92,29.89,10,10,10,7,4,,0.00,0,,274
2013-10-19,91,72,55,35,29,23,36,23,9,30.00,29.93,29.88,10,10,10,8,4,,0.00,0,,271
2013-10-20,93,73,55,38,30,21,39,23,8,29.90,29.84,29.77,10,10,10,9,4,,0.00,0,,245
2013-10-21,91,72,55,39,32,25,42,25,10,29.92,29.87,29.83,10,10,7,6,3,,0.00,0,,237
2013-10-22,91,73,55,38,32,25,42,26,10,29.96,29.89,29.83,10,10,10,7,4,,0.00,0,,273
2013-10-23,90,72,55,39,33,26,39,26,11,29.84,29.80,29.76,10,10,10,8,4,,0.00,0,,266
2013-10-24,89,72,55,49,38,31,55,34,14,29.91,29.85,29.79,10,10,7,6,1,,0.00,0,,284
2013-10-25,91,73,55,44,37,27,49,32,10,30.02,29.96,29.91,10,10,10,6,3,,0.00,0,,248
2013-10-26,91,74,59,43,36,28,46,29,11,30.04,29.97,29.91,10,10,10,7,3,,0.00,0,,267
2013-10-27,93,76,60,41,35,28,41,24,10,29.90,29.78,29.68,10,10,10,24,8,32,0.00,0,,244
2013-10-28,77,70,64,53,48,42,56,47,34,29.86,29.77,29.71,10,10,9,29,22,39,0.00,0,,253
2013-10-29,73,66,59,46,42,38,57,45,29,29.94,29.89,29.85,10,10,10,16,10,24,0.00,2,,288
2013-10-30,75,62,50,45,38,35,63,44,23,30.03,29.97,29.92,10,10,10,13,7,,0.00,0,,277
2013-10-31,78,62,46,40,32,27,54,37,16,30.12,30.05,30.00,10,10,10,7,5,,0.00,0,,263